Terminal Aerodrome Forecast
Issued by NWS Billings, MT

Home | Current Version | Previous Version | Text Only | Print | Product List | Glossary On
Versions: 1 2 3 4 5 6 7 8 9 10 11 12 13 14 15 16 17 18 19 20 21 22 23 24 25 26 27 28 29 30 31 32 33 34 35 36 37 38 39 40 41 42 43 44
000
FTUS45 KBYZ 250307 AAB
TAFSHR
TAF AMD
KSHR 250307Z 2503/2524 02005KT P6SM -RA FEW004 BKN010 OVC050
      TEMPO 2503/2505 5SM -RA BR BKN004 OVC010
     FM250600 32006KT 6SM -RA BR SCT008 OVC015
     FM251600 32006KT P6SM VCSH SCT012 OVC020
     FM252000 01006KT P6SM VCSH SCT020 BKN060=

USA.gov is the U.S. government's official web portal to all federal, state and local government web resources and services.